Flight Track Log - Related Links

Times and Time Zones

All times are in EDT time to prevent confusion due to time zone crossing. See the SKW6306 flight status page for this flight to view local times or setup timezone preferences in your user account.

Time Position Orientation Groundspeed Altitude Reporting Facility
EDT Latitude Longitude Course Direction KTS MPH feet Rate Location/Type
Fri 03:35:00 PM 39.8333 -104.7667 348° North 201 231 6,300  Level Denver TRACON
Fri 03:35:54 PM 39.8667 -104.8167 311° West 225 259 7,900 1,700 Climbing Denver TRACON
Fri 03:37:00 PM 40.2111 -104.7850 347° North  Level FlightAware Approximate
Fri 03:37:00 PM 39.9167 -104.8833 314° West 264 304 9,700  Level Denver TRACON
Fri 03:38:00 PM 40.3322 -104.8219 346° North  Level FlightAware Approximate
Fri 03:38:00 PM 40.0000 -104.8833 360° North 301 346 10,800  Level Denver TRACON
Fri 03:38:54 PM 40.0833 -104.8833 360° North 317 365 12,000 1,489 Climbing Denver TRACON
Fri 03:39:00 PM 40.4527 -104.8620 346° North  Level FlightAware Approximate
Fri 03:40:00 PM 40.5737 -104.8996 348° North  Level FlightAware Approximate
Fri 03:40:17 PM 40.2058 -104.8775 North 329 379 14,200  Level Denver Center
Fri 03:41:19 PM 40.3067 -104.8728 North 333 383 15,800 1,403 Climbing Denver Center
Fri 03:42:21 PM 40.4044 -104.8678 North 349 402 17,100 1,210 Climbing Denver Center
Fri 03:43:23 PM 40.5053 -104.8644 North 363 418 18,300 1,210 Climbing Denver Center
Fri 03:44:25 PM 40.6147 -104.8594 North 366 421 19,600 1,065 Climbing Denver Center
Fri 03:45:27 PM 40.7192 -104.8569 North 374 430 20,500 968 Climbing Denver Center
Fri 03:46:29 PM 40.8256 -104.8678 356° North 373 429 21,600 1,065 Climbing Denver Center
Fri 03:47:31 PM 40.9256 -104.9192 339° North 384 442 22,700 919 Climbing Denver Center
Fri 03:48:33 PM 41.0442 -104.9489 349° North 391 450 23,500 768 Climbing Denver Center
Fri 03:49:36 PM 41.1497 -104.9719 351° North 399 459 24,300 816 Climbing Denver Center
Fri 03:50:38 PM 41.2747 -104.9989 351° North 405 466 25,200 871 Climbing Denver Center
Fri 03:51:40 PM 41.3831 -105.0206 351° North 411 473 26,100 919 Climbing Denver Center
Fri 03:52:42 PM 41.5103 -105.0483 351° North 413 475 27,100 726 Climbing Denver Center
Fri 03:53:44 PM 41.6192 -105.0728 350° North 413 475 27,600 581 Climbing Denver Center
Fri 03:54:46 PM 41.7511 -105.1008 351° North 426 490 28,300 726 Climbing Denver Center
Fri 03:55:48 PM 41.8619 -105.1228 352° North 423 487 29,100 581 Climbing Denver Center
Fri 03:56:50 PM 41.9719 -105.1469 351° North 417 480 29,500 387 Climbing Denver Center
Fri 03:57:52 PM 42.1033 -105.1756 351° North 426 490 29,900 435 Climbing Denver Center
Fri 03:58:54 PM 42.2175 -105.1989 351° North 430 495 30,400 581 Climbing Denver Center
Fri 03:59:56 PM 42.3517 -105.2281 351° North 434 499 31,100 561 Climbing Denver Center
Fri 04:01:45 PM 42.5631 -105.2750 351° North 435 501 32,000 316 Climbing Salt Lake Center
Fri 04:02:47 PM 42.6794 -105.2994 351° North 437 503 32,000  Level Salt Lake Center
Fri 04:04:05 PM 42.8578 -105.3394 351° North 451 519 32,000  Level Denver Center
Fri 04:05:07 PM 42.9817 -105.3650 351° North 464 534 32,000  Level Denver Center
Fri 04:06:09 PM 43.1058 -105.3922 351° North 468 539 32,000  Level Denver Center
Fri 04:07:11 PM 43.2511 -105.4247 351° North 472 543 32,000  Level Denver Center
Fri 04:08:13 PM 43.3781 -105.4514 351° North 478 550 32,000  Level Denver Center
Fri 04:09:15 PM 43.5253 -105.4844 351° North 479 551 32,000  Level Denver Center
Fri 04:10:17 PM 43.6525 -105.5128 351° North 481 554 32,000  Level Denver Center
Fri 04:11:19 PM 43.8011 -105.5467 351° North 482 555 32,000  Level Denver Center
Fri 04:12:21 PM 43.9286 -105.5744 351° North 484 557 32,000  Level Denver Center
Fri 04:13:23 PM 44.0778 -105.6086 351° North 485 558 32,000  Level Denver Center
Fri 04:14:25 PM 44.2069 -105.6386 351° North 488 562 32,000  Level Denver Center
Fri 04:15:27 PM 44.3586 -105.6731 351° North 492 566 32,000  Level Denver Center
Fri 04:16:11 PM 44.4458 -105.6944 350° North 493 567 32,000  Level Salt Lake Center
Fri 04:17:13 PM 44.5989 -105.7289 351° North 497 572 32,000  Level Salt Lake Center
Fri 04:18:15 PM 44.7292 -105.7594 351° North 497 572 32,000  Level Salt Lake Center
Fri 04:19:17 PM 44.8822 -105.7936 351° North 498 573 32,000  Level Salt Lake Center
Fri 04:20:19 PM 45.0136 -105.8247 350° North 499 574 32,000  Level Salt Lake Center
Fri 04:21:21 PM 45.1667 -105.8617 350° North 500 575 32,000  Level Salt Lake Center
Fri 04:22:23 PM 45.2975 -105.8908 351° North 499 574 32,000 -48 Level Salt Lake Center
Fri 04:23:25 PM 45.4342 -105.9244 350° North 499 574 31,900  Descending Salt Lake Center
Fri 04:24:27 PM 45.5719 -105.9583 350° North 501 577 32,000 48 Climbing Salt Lake Center
Fri 04:25:29 PM 45.7094 -105.9900 351° North 501 577 32,000  Level Salt Lake Center
Fri 04:26:31 PM 45.8456 -106.0222 351° North 499 574 32,000  Level Salt Lake Center
Fri 04:27:33 PM 46.0111 -106.0608 351° North 500 575 32,000  Level Salt Lake Center
Fri 04:28:35 PM 46.1494 -106.0942 351° North 501 577 32,000  Level Salt Lake Center
Fri 04:29:37 PM 46.2881 -106.1283 350° North 502 578 32,000  Level Salt Lake Center
Fri 04:30:39 PM 46.4264 -106.1631 350° North 503 579 32,000  Level Salt Lake Center
Fri 04:31:40 PM 46.5667 -106.1986 350° North 506 582 32,000  Level Salt Lake Center
Fri 04:32:42 PM 46.7039 -106.2339 350° North 505 581 32,000  Level Salt Lake Center
Fri 04:33:44 PM 46.8436 -106.2692 350° North 506 582 32,000  Level Salt Lake Center
Fri 04:34:46 PM 47.0119 -106.3136 350° North 508 585 32,000  Level Salt Lake Center
Fri 04:35:48 PM 47.1528 -106.3492 350° North 510 587 32,000  Level Salt Lake Center
Fri 04:36:50 PM 47.2942 -106.3847 350° North 512 589 32,000  Level Salt Lake Center
Fri 04:37:52 PM 47.4381 -106.4228 350° North 517 595 32,000  Level Salt Lake Center
Fri 04:38:54 PM 47.5817 -106.4594 350° North 520 598 32,000  Level Salt Lake Center
Fri 04:39:56 PM 47.7247 -106.4964 350° North 521 600 32,000  Level Salt Lake Center
Fri 04:40:58 PM 47.8681 -106.5353 350° North 522 601 32,000  Level Salt Lake Center
Fri 04:42:00 PM 48.0422 -106.5803 350° North 525 604 32,000  Level Salt Lake Center
Fri 04:43:01 PM 48.1869 -106.6172 350° North 527 606 32,000  Level Salt Lake Center
Fri 04:44:03 PM 48.3244 -106.6800 343° North 520 598 32,000  Level Salt Lake Center
Fri 04:45:05 PM 48.4608 -106.7483 342° North 517 595 32,000  Level Salt Lake Center
Fri 04:46:07 PM 48.5978 -106.8150 342° North 517 595 32,000  Level Salt Lake Center
Fri 04:47:09 PM 48.7333 -106.8833 342° North 516 594 32,000  Level Salt Lake Center
Fri 04:48:11 PM 48.8681 -106.9497 342° North 512 589 32,000  Level Salt Lake Center
Fri 04:49:00 PM 48.9833 -107.0500 330° Northwest 500 575 32,000  Level Winnipeg Center
Fri 04:50:00 PM 49.1000 -107.1000 344° North 500 575 32,000  Level Winnipeg Center
Fri 04:51:00 PM 49.2500 -107.1833 340° North 500 575 32,000  Level Winnipeg Center
Fri 04:52:00 PM 49.3833 -107.2333 346° North 490 564 32,000  Level Winnipeg Center
Fri 04:53:00 PM 49.4833 -107.3167 332° Northwest 490 564 32,000  Level Winnipeg Center
Fri 04:54:00 PM 49.6333 -107.3667 348° North 490 564 32,000  Level Winnipeg Center
Fri 04:55:00 PM 49.7500 -107.4500 335° Northwest 490 564 32,000  Level Winnipeg Center
Fri 04:56:00 PM 49.8700 -107.5020 344° North  Level FlightAware Approximate
Fri 04:56:00 PM 49.9000 -107.5000 344° North 490 564 32,000  Level Winnipeg Center
Fri 04:57:00 PM 50.0000 -107.5833 332° Northwest 480 552 32,000  Level Winnipeg Center
Fri 04:58:00 PM 50.1500 -107.6500 344° North 480 552 32,000  Level Winnipeg Center
Fri 04:59:00 PM 50.2667 -107.7000 345° North 480 552 32,000  Level Winnipeg Center
Fri 05:00:00 PM 50.4000 -107.7000 360° North 480 552 32,000 -200 Level Winnipeg Center
Fri 05:01:00 PM 50.5231 -107.6693 North  Level FlightAware Approximate
Fri 05:03:00 PM 50.8000 -107.6667 North 490 564 31,200  Level Winnipeg Center
Fri 05:04:00 PM 50.9500 -107.6500 North 500 575 30,500 -1,250 Descending Winnipeg Center
Fri 05:05:00 PM 51.0833 -107.5667 21° North 500 575 28,700 -2,150 Descending Winnipeg Center
Fri 05:06:00 PM 51.2000 -107.5167 15° North 480 552 26,200 -2,550 Descending Winnipeg Center
Fri 05:07:00 PM 51.3167 -107.4667 15° North 450 518 23,600 -2,750 Descending Winnipeg Center
Fri 05:08:00 PM 51.3926 -107.5614 North  Level FlightAware Approximate
Fri 05:08:00 PM 51.4333 -107.3833 24° Northeast 430 495 20,700  Level Winnipeg Center
Fri 05:09:00 PM 51.5168 -107.5473 North  Level FlightAware Approximate
Fri 05:09:00 PM 51.5500 -107.3333 15° North 410 472 18,100  Level Winnipeg Center
Fri 05:10:00 PM 51.6500 -107.2667 22° Northeast 390 449 15,400 -2,650 Descending Winnipeg Center
Fri 05:11:00 PM 51.7333 -107.2000 26° Northeast 380 437 12,800 -2,450 Descending Winnipeg Center
Fri 05:12:00 PM 51.8333 -107.1667 12° North 370 426 10,500 -1,700 Descending Winnipeg Center
Fri 05:13:00 PM 51.9167 -107.1167 20° North 320 368 9,400 -1,100 Descending Winnipeg Center
Fri 05:14:00 PM 51.9833 -107.0667 25° Northeast 290 334 8,300 -1,200 Descending Winnipeg Center
Fri 05:15:00 PM 52.0833 -107.0333 12° North 290 334 7,000 -1,500 Descending Winnipeg Center
Fri 05:16:00 PM 52.1500 -107.0000 17° North 270 311 5,300 -1,700 Descending Winnipeg Center

Login

Don't have an account? Register now (free) for customized features, flight alerts, and more!